Las Vegas, Nevada
Traffic Map
Current Weather Conditions
Las Vegas, Nevada
Overcast
Overcast
87°
Feels Like: 87°
Wind Chill: 87° Ceiling: 11000
Heat Index: 87° Visibility: 10mi
Dew Point: 52° Wind: 3mph
Humidity: 30% Direction: 210° (SSW)
Pressure: 29.94in Gusts: 0mph
Raw Report DataKLAS 211156Z 21003KT 10SM FEW070 SCT090 BKN110 OVC150 31/11 A2994 RMK AO2 LTG DSNT SW SLP108 VCSH 60000 T03060111 10339 20300 53005
Traffic Incident Summary
Active as of:
Severity:
Category:
InformationThere was an issue retrieving the traffic information for this location. Please try a different location or try again shortly.
Advertisements